Time;durP1;ratioP1;P1;durP2;ratioP2;P2;SDS_P1;SDS_P2;PMS_P1;PMS_P2;Temp;Humidity;BMP_temperature;BMP_pressure;BME280_temperature;BME280_humidity;BME280_pressure;Samples;Min_cycle;Max_cycle;Signal;HPM_P1;HPM_P2
2023/11/20 00:00:15;;;;;;;9.32;1.85;;;;;;;;;;698072;28;1542;-69
2023/11/20 00:00:35;;;;;;;6.30;1.80;;;;;;;;;;699006;28;1346;-69
2023/11/20 00:00:55;;;;;;;7.10;1.90;;;;;;;;;;700584;28;1504;-68
2023/11/20 00:01:22;;;;;;;7.57;1.92;;;;;;;;;;699432;28;5497;-69
2023/11/20 00:01:43;;;;;;;7.28;1.88;;;;;;;;;;701753;28;1472;-69
2023/11/20 00:02:03;;;;;;;5.70;1.80;;;;;;;;;;701472;28;1473;-70
2023/11/20 00:02:23;;;;;;;8.02;1.90;;;;;;;;;;701959;28;1325;-68
2023/11/20 00:02:43;;;;;;;9.33;2.30;;;;;;;;;;702778;28;1429;-69
2023/11/20 00:03:04;;;;;;;7.27;2.40;;;;;;;;;;699877;28;1719;-69
2023/11/20 00:03:24;;;;;;;6.65;2.10;;;;;;;;;;699954;28;1667;-70
2023/11/20 00:03:45;;;;;;;6.83;1.90;;;;;;;;;;696607;28;1158;-69
2023/11/20 00:04:05;;;;;;;6.80;1.60;;;;;;;;;;694189;28;4430;-69
2023/11/20 00:04:27;;;;;;;8.20;1.80;;;;;;;;;;693030;28;1093;-70
2023/11/20 00:04:48;;;;;;;8.30;2.10;;;;;;;;;;693689;28;1256;-69
2023/11/20 00:05:11;;;;;;;7.85;2.00;;;;;;;;;;689880;28;1766;-70
2023/11/20 00:05:31;;;;;;;7.30;2.20;;;;;;;;;;690821;28;1228;-69
2023/11/20 00:05:52;;;;;;;7.95;2.00;;;;;;;;;;693668;28;1382;-70
2023/11/20 00:06:13;;;;;;;8.60;2.20;;;;;;;;;;693272;28;2438;-70
2023/11/20 00:06:33;;;;;;;10.65;2.60;;;;;;;;;;695823;28;1230;-69
2023/11/20 00:06:55;;;;;;;9.23;2.20;;;;;;;;;;695335;28;1307;-69
2023/11/20 00:07:16;;;;;;;9.80;2.40;;;;;;;;;;694258;28;4238;-68
2023/11/20 00:07:37;;;;;;;8.75;2.30;;;;;;;;;;695849;28;1376;-68
2023/11/20 00:07:58;;;;;;;9.50;2.50;;;;;;;;;;693416;28;1775;-69
2023/11/20 00:08:19;;;;;;;7.38;2.35;;;;;;;;;;695792;28;1500;-68
2023/11/20 00:08:43;;;;;;;6.55;2.13;;;;;;;;;;700283;28;1353;-69
2023/11/20 00:09:04;;;;;;;10.00;2.08;;;;;;;;;;697732;28;1681;-69
2023/11/20 00:09:25;;;;;;;10.20;3.10;;;;;;;;;;697105;28;1211;-69
2023/11/20 00:09:46;;;;;;;8.20;2.15;;;;;;;;;;698962;28;1182;-69
2023/11/20 00:10:07;;;;;;;6.90;2.00;;;;;;;;;;697420;28;4399;-68
2023/11/20 00:10:27;;;;;;;6.75;2.10;;;;;;;;;;695263;28;1211;-69
2023/11/20 00:10:47;;;;;;;5.83;1.93;;;;;;;;;;693845;28;1242;-70
2023/11/20 00:11:08;;;;;;;8.07;2.47;;;;;;;;;;694728;28;1805;-69
2023/11/20 00:11:28;;;;;;;8.77;2.60;;;;;;;;;;693769;28;1964;-69
2023/11/20 00:11:48;;;;;;;9.30;2.20;;;;;;;;;;694179;28;1258;-70
2023/11/20 00:12:09;;;;;;;9.65;2.15;;;;;;;;;;693181;28;1305;-68
2023/11/20 00:12:29;;;;;;;9.53;2.10;;;;;;;;;;693473;28;1218;-68
2023/11/20 00:12:49;;;;;;;8.27;2.30;;;;;;;;;;692989;28;1208;-69
2023/11/20 00:13:10;;;;;;;6.82;1.92;;;;;;;;;;692759;28;4253;-68
2023/11/20 00:13:31;;;;;;;6.25;1.80;;;;;;;;;;694271;28;1342;-68
2023/11/20 00:13:51;;;;;;;9.43;2.10;;;;;;;;;;692965;28;1359;-69
2023/11/20 00:14:11;;;;;;;9.53;2.13;;;;;;;;;;692553;28;1538;-69
2023/11/20 00:14:31;;;;;;;8.50;1.80;;;;;;;;;;694707;28;1329;-69
2023/11/20 00:14:52;;;;;;;7.63;2.00;;;;;;;;;;695906;28;1206;-69
2023/11/20 00:15:12;;;;;;;7.13;1.80;;;;;;;;;;694747;28;1743;-69
2023/11/20 00:15:34;;;;;;;7.28;2.00;;;;;;;;;;696066;28;1214;-69
2023/11/20 00:15:54;;;;;;;8.02;1.95;;;;;;;;;;695955;28;1305;-68
2023/11/20 00:16:14;;;;;;;7.30;1.88;;;;;;;;;;694139;28;4256;-69
2023/11/20 00:16:35;;;;;;;8.43;2.10;;;;;;;;;;696186;28;1338;-69
2023/11/20 00:16:55;;;;;;;7.10;1.77;;;;;;;;;;694832;28;1338;-68
2023/11/20 00:17:15;;;;;;;8.17;2.10;;;;;;;;;;694788;28;1701;-69
2023/11/20 00:17:37;;;;;;;7.20;2.00;;;;;;;;;;692755;28;1511;-69
2023/11/20 00:17:58;;;;;;;6.75;1.88;;;;;;;;;;695448;28;1326;-68
2023/11/20 00:18:18;;;;;;;7.03;1.90;;;;;;;;;;696323;28;1305;-68
2023/11/20 00:18:39;;;;;;;8.57;1.80;;;;;;;;;;692948;28;1500;-68
2023/11/20 00:18:59;;;;;;;7.90;1.80;;;;;;;;;;689526;28;4316;-69
2023/11/20 00:19:20;;;;;;;7.37;1.90;;;;;;;;;;693066;28;1271;-66
2023/11/20 00:19:45;;;;;;;5.70;1.60;;;;;;;;;;696489;28;1540;-69
2023/11/20 00:20:06;;;;;;;6.38;1.77;;;;;;;;;;693744;28;1282;-69
2023/11/20 00:20:26;;;;;;;6.68;1.60;;;;;;;;;;696198;28;1361;-69
2023/11/20 00:20:46;;;;;;;7.55;1.55;;;;;;;;;;699145;28;1257;-68
2023/11/20 00:21:07;;;;;;;6.37;1.47;;;;;;;;;;697381;28;1107;-68
2023/11/20 00:21:27;;;;;;;9.43;2.00;;;;;;;;;;695569;28;1298;-69
2023/11/20 00:21:47;;;;;;;9.43;2.10;;;;;;;;;;696225;28;1241;-69
2023/11/20 00:22:09;;;;;;;8.23;2.03;;;;;;;;;;693718;28;4323;-69
2023/11/20 00:22:29;;;;;;;7.57;2.03;;;;;;;;;;696628;28;1384;-69
2023/11/20 00:22:49;;;;;;;8.80;2.30;;;;;;;;;;696431;28;1400;-69
2023/11/20 00:23:10;;;;;;;7.97;1.87;;;;;;;;;;693534;28;1727;-69
2023/11/20 00:23:30;;;;;;;8.88;1.80;;;;;;;;;;695913;28;3517;-69
2023/11/20 00:23:51;;;;;;;9.20;1.93;;;;;;;;;;696519;28;1341;-71
2023/11/20 00:24:11;;;;;;;7.22;1.80;;;;;;;;;;696367;28;1182;-69
2023/11/20 00:24:31;;;;;;;6.77;1.90;;;;;;;;;;696689;28;1377;-71
2023/11/20 00:24:52;;;;;;;6.93;1.70;;;;;;;;;;698788;28;1115;-69
2023/11/20 00:25:12;;;;;;;7.13;1.60;;;;;;;;;;696807;28;4322;-69
2023/11/20 00:25:32;;;;;;;6.83;1.50;;;;;;;;;;701897;28;1359;-69
2023/11/20 00:25:52;;;;;;;7.83;1.70;;;;;;;;;;701466;28;1169;-68
2023/11/20 00:26:15;;;;;;;7.60;1.55;;;;;;;;;;695472;28;1562;-69
2023/11/20 00:26:42;;;;;;;8.77;2.28;;;;;;;;;;697108;28;1454;-69
2023/11/20 00:27:04;;;;;;;9.88;1.80;;;;;;;;;;696034;28;1785;-69
2023/11/20 00:27:24;;;;;;;5.80;1.60;;;;;;;;;;692540;28;1449;-69
2023/11/20 00:27:44;;;;;;;7.30;1.50;;;;;;;;;;692887;28;1394;-67
2023/11/20 00:28:04;;;;;;;8.13;1.50;;;;;;;;;;694691;28;5898;-69
2023/11/20 00:28:25;;;;;;;4.43;1.43;;;;;;;;;;699519;28;1337;-70
2023/11/20 00:28:45;;;;;;;6.60;1.55;;;;;;;;;;696147;28;1270;-68
2023/11/20 00:29:06;;;;;;;6.40;1.50;;;;;;;;;;696184;28;2243;-69
2023/11/20 00:29:26;;;;;;;6.50;1.55;;;;;;;;;;696175;28;1436;-70
2023/11/20 00:29:46;;;;;;;4.43;1.37;;;;;;;;;;695159;28;1286;-68
2023/11/20 00:30:07;;;;;;;3.80;1.30;;;;;;;;;;689749;28;1836;-70
2023/11/20 00:30:28;;;;;;;7.47;1.60;;;;;;;;;;691176;28;933;-69
2023/11/20 00:30:48;;;;;;;10.47;1.80;;;;;;;;;;689110;28;1279;-69
2023/11/20 00:31:14;;;;;;;8.67;1.73;;;;;;;;;;690657;28;4324;-69
2023/11/20 00:31:35;;;;;;;9.07;1.60;;;;;;;;;;691680;28;1973;-70
2023/11/20 00:31:55;;;;;;;9.02;1.67;;;;;;;;;;690906;28;1296;-69
2023/11/20 00:32:15;;;;;;;7.23;1.70;;;;;;;;;;691142;28;1702;-69
2023/11/20 00:32:35;;;;;;;6.27;1.60;;;;;;;;;;691604;28;1137;-70
2023/11/20 00:32:56;;;;;;;5.57;2.17;;;;;;;;;;689071;28;1290;-73
2023/11/20 00:33:17;;;;;;;4.40;1.83;;;;;;;;;;688140;28;1841;-70
2023/11/20 00:33:37;;;;;;;5.10;1.23;;;;;;;;;;687987;28;1140;-69
2023/11/20 00:33:58;;;;;;;6.00;1.47;;;;;;;;;;692058;28;1270;-70
2023/11/20 00:34:19;;;;;;;9.13;1.80;;;;;;;;;;694105;28;4592;-71
2023/11/20 00:34:39;;;;;;;6.27;1.60;;;;;;;;;;694454;28;1143;-69
2023/11/20 00:34:59;;;;;;;6.60;1.60;;;;;;;;;;693339;28;1882;-72
2023/11/20 00:35:20;;;;;;;7.07;1.60;;;;;;;;;;698875;28;1899;-70
2023/11/20 00:35:43;;;;;;;8.13;1.90;;;;;;;;;;701042;28;1210;-70
2023/11/20 00:36:03;;;;;;;8.43;2.00;;;;;;;;;;700121;28;1801;-69
2023/11/20 00:36:24;;;;;;;7.53;1.97;;;;;;;;;;700254;28;1411;-70
2023/11/20 00:36:44;;;;;;;6.60;1.63;;;;;;;;;;696216;28;1250;-70
2023/11/20 00:37:05;;;;;;;7.40;1.70;;;;;;;;;;693640;28;4234;-69
2023/11/20 00:37:25;;;;;;;6.03;1.92;;;;;;;;;;692730;28;1235;-73
2023/11/20 00:37:46;;;;;;;6.73;1.80;;;;;;;;;;692368;28;1427;-69
2023/11/20 00:38:06;;;;;;;7.20;1.80;;;;;;;;;;689038;28;1950;-73
2023/11/20 00:38:26;;;;;;;9.13;1.63;;;;;;;;;;688125;28;1270;-70
2023/11/20 00:38:46;;;;;;;8.53;2.10;;;;;;;;;;691311;28;1297;-70
2023/11/20 00:39:07;;;;;;;8.60;1.88;;;;;;;;;;690113;28;1874;-69
2023/11/20 00:39:27;;;;;;;8.30;1.70;;;;;;;;;;691151;28;1285;-70
2023/11/20 00:39:48;;;;;;;9.18;1.80;;;;;;;;;;690821;28;1226;-71
2023/11/20 00:40:11;;;;;;;7.73;1.90;;;;;;;;;;691909;28;4457;-69
2023/11/20 00:40:32;;;;;;;7.95;1.88;;;;;;;;;;696755;28;1319;-70
2023/11/20 00:40:53;;;;;;;9.38;2.17;;;;;;;;;;692925;28;1464;-70
2023/11/20 00:41:14;;;;;;;8.47;1.80;;;;;;;;;;690699;28;1739;-70
2023/11/20 00:41:35;;;;;;;7.90;1.90;;;;;;;;;;691220;28;1527;-70
2023/11/20 00:41:55;;;;;;;7.82;2.03;;;;;;;;;;690101;28;1178;-70
2023/11/20 00:42:17;;;;;;;9.57;1.90;;;;;;;;;;689230;28;5417;-69
2023/11/20 00:42:37;;;;;;;10.73;2.20;;;;;;;;;;692417;28;1107;-71
2023/11/20 00:42:57;;;;;;;9.15;2.00;;;;;;;;;;691297;28;1280;-69
2023/11/20 00:43:18;;;;;;;6.33;1.60;;;;;;;;;;695702;28;4205;-70
2023/11/20 00:43:39;;;;;;;6.07;1.50;;;;;;;;;;693750;28;1288;-70
2023/11/20 00:43:59;;;;;;;5.90;1.60;;;;;;;;;;689070;28;2043;-70
2023/11/20 00:44:19;;;;;;;7.77;1.90;;;;;;;;;;692091;28;1135;-71
2023/11/20 00:44:40;;;;;;;8.33;1.80;;;;;;;;;;692066;28;1150;-73
2023/11/20 00:45:00;;;;;;;5.70;1.67;;;;;;;;;;692772;28;1164;-71
2023/11/20 00:45:20;;;;;;;6.70;1.53;;;;;;;;;;691918;28;1364;-70
2023/11/20 00:45:40;;;;;;;8.53;1.73;;;;;;;;;;693612;28;1490;-69
2023/11/20 00:46:01;;;;;;;8.68;1.83;;;;;;;;;;695973;28;4301;-70
2023/11/20 00:46:21;;;;;;;6.90;1.63;;;;;;;;;;698650;28;1162;-69
2023/11/20 00:46:41;;;;;;;5.83;1.57;;;;;;;;;;700957;28;1194;-70
2023/11/20 00:47:02;;;;;;;5.97;1.60;;;;;;;;;;696285;28;1343;-70
2023/11/20 00:47:23;;;;;;;7.65;1.75;;;;;;;;;;695100;28;905;-68
2023/11/20 00:47:43;;;;;;;4.53;1.47;;;;;;;;;;697139;28;1125;-69
2023/11/20 00:48:04;;;;;;;6.30;1.60;;;;;;;;;;694761;28;2435;-70
2023/11/20 00:48:24;;;;;;;7.10;1.70;;;;;;;;;;693600;28;1284;-71
2023/11/20 00:48:44;;;;;;;7.25;1.65;;;;;;;;;;695958;28;1166;-69
2023/11/20 00:49:05;;;;;;;6.73;1.50;;;;;;;;;;697664;28;4278;-69
2023/11/20 00:49:25;;;;;;;5.22;1.45;;;;;;;;;;694969;28;1219;-70
2023/11/20 00:49:46;;;;;;;5.20;1.73;;;;;;;;;;692760;28;1188;-70
2023/11/20 00:50:06;;;;;;;5.30;1.30;;;;;;;;;;692873;28;2681;-69
2023/11/20 00:50:27;;;;;;;6.13;1.40;;;;;;;;;;692906;28;1346;-67
2023/11/20 00:50:47;;;;;;;5.63;1.40;;;;;;;;;;694086;28;1331;-69
2023/11/20 00:51:07;;;;;;;7.77;1.50;;;;;;;;;;692148;28;1709;-68
2023/11/20 00:51:30;;;;;;;5.63;1.30;;;;;;;;;;694053;28;1107;-68
2023/11/20 00:51:50;;;;;;;7.13;1.90;;;;;;;;;;696651;28;1264;-69
2023/11/20 00:52:12;;;;;;;7.22;1.40;;;;;;;;;;694431;28;4225;-68
2023/11/20 00:52:35;;;;;;;7.20;1.60;;;;;;;;;;695455;28;1385;-69
2023/11/20 00:52:55;;;;;;;8.10;1.92;;;;;;;;;;696247;28;1143;-70
2023/11/20 00:53:16;;;;;;;6.35;1.30;;;;;;;;;;698044;28;1818;-70
2023/11/20 00:53:36;;;;;;;6.03;1.30;;;;;;;;;;696045;28;1096;-69
2023/11/20 00:53:56;;;;;;;6.37;1.67;;;;;;;;;;696330;28;1199;-69
2023/11/20 00:54:16;;;;;;;6.50;1.77;;;;;;;;;;692168;28;2041;-70
2023/11/20 00:54:37;;;;;;;5.60;1.43;;;;;;;;;;693157;28;1045;-74
2023/11/20 00:54:58;;;;;;;5.00;1.50;;;;;;;;;;690009;28;2981;-69
2023/11/20 00:55:18;;;;;;;6.28;1.60;;;;;;;;;;691890;28;4506;-71
2023/11/20 00:55:38;;;;;;;7.10;1.50;;;;;;;;;;690877;28;1210;-69
2023/11/20 00:55:59;;;;;;;6.57;1.60;;;;;;;;;;691025;28;1219;-71
2023/11/20 00:56:19;;;;;;;6.90;1.67;;;;;;;;;;693189;28;1516;-69
2023/11/20 00:56:39;;;;;;;6.63;2.10;;;;;;;;;;697079;28;1138;-69
2023/11/20 00:56:59;;;;;;;8.17;1.67;;;;;;;;;;699455;28;1164;-69
2023/11/20 00:57:20;;;;;;;5.60;1.40;;;;;;;;;;697832;28;1216;-69
2023/11/20 00:57:40;;;;;;;5.40;1.40;;;;;;;;;;698783;28;1198;-69
2023/11/20 00:58:01;;;;;;;5.67;1.47;;;;;;;;;;693387;28;4392;-69
2023/11/20 00:58:21;;;;;;;5.13;1.33;;;;;;;;;;693664;28;1112;-69
2023/11/20 00:58:42;;;;;;;7.93;1.77;;;;;;;;;;697212;28;1418;-69
2023/11/20 00:59:03;;;;;;;7.43;1.67;;;;;;;;;;695656;28;1939;-70
2023/11/20 00:59:23;;;;;;;5.40;1.60;;;;;;;;;;696230;28;1430;-70
2023/11/20 00:59:45;;;;;;;7.73;1.60;;;;;;;;;;696453;28;1215;-70
2023/11/20 01:00:06;;;;;;;6.25;1.35;;;;;;;;;;689384;28;1750;-69
2023/11/20 01:00:27;;;;;;;6.03;1.50;;;;;;;;;;689666;28;1387;-69
2023/11/20 01:00:48;;;;;;;6.60;1.42;;;;;;;;;;687205;28;2289;-70
2023/11/20 01:01:09;;;;;;;5.90;1.50;;;;;;;;;;682210;28;4580;-71
2023/11/20 01:01:33;;;;;;;4.90;1.40;;;;;;;;;;686546;28;1287;-70
2023/11/20 01:01:54;;;;;;;5.90;1.40;;;;;;;;;;684600;28;1978;-67
2023/11/20 01:02:14;;;;;;;5.33;1.53;;;;;;;;;;688395;28;2488;-70
2023/11/20 01:02:34;;;;;;;7.22;1.70;;;;;;;;;;688303;28;1403;-69
2023/11/20 01:02:54;;;;;;;5.97;1.50;;;;;;;;;;686800;28;1169;-71
2023/11/20 01:03:15;;;;;;;4.53;1.50;;;;;;;;;;686000;28;2172;-70
2023/11/20 01:03:35;;;;;;;4.57;1.33;;;;;;;;;;685937;28;1165;-69
2023/11/20 01:03:56;;;;;;;5.83;1.40;;;;;;;;;;692975;28;1267;-69
2023/11/20 01:04:17;;;;;;;6.22;1.42;;;;;;;;;;692153;28;4450;-70
2023/11/20 01:04:37;;;;;;;6.28;1.80;;;;;;;;;;689738;28;1259;-69
2023/11/20 01:04:57;;;;;;;7.43;2.13;;;;;;;;;;691759;28;1431;-73
2023/11/20 01:05:19;;;;;;;6.93;1.52;;;;;;;;;;693920;28;1609;-69
2023/11/20 01:05:42;;;;;;;7.47;1.60;;;;;;;;;;698069;28;1120;-70
2023/11/20 01:06:03;;;;;;;6.57;1.50;;;;;;;;;;696946;28;2489;-68
2023/11/20 01:06:24;;;;;;;5.93;1.52;;;;;;;;;;697451;28;1143;-69
2023/11/20 01:06:44;;;;;;;6.00;1.50;;;;;;;;;;698190;28;1079;-72
2023/11/20 01:07:04;;;;;;;7.03;1.40;;;;;;;;;;697268;28;5078;-70
2023/11/20 01:07:25;;;;;;;7.97;1.53;;;;;;;;;;699094;28;1225;-69
2023/11/20 01:07:45;;;;;;;9.15;1.95;;;;;;;;;;699045;28;1135;-70
2023/11/20 01:08:06;;;;;;;6.70;1.50;;;;;;;;;;697064;28;2266;-68
2023/11/20 01:08:26;;;;;;;5.77;1.60;;;;;;;;;;698914;28;1166;-69
2023/11/20 01:08:46;;;;;;;7.68;1.70;;;;;;;;;;697322;28;1169;-69
2023/11/20 01:09:07;;;;;;;8.80;1.50;;;;;;;;;;694335;28;1820;-69
2023/11/20 01:09:28;;;;;;;7.07;1.50;;;;;;;;;;696172;28;1194;-67
2023/11/20 01:09:48;;;;;;;6.03;1.35;;;;;;;;;;700316;28;1126;-70
2023/11/20 01:10:08;;;;;;;7.27;1.63;;;;;;;;;;697657;28;4297;-69
2023/11/20 01:10:29;;;;;;;6.93;2.10;;;;;;;;;;696562;28;1131;-70
2023/11/20 01:10:49;;;;;;;5.07;1.90;;;;;;;;;;695376;28;1345;-67
2023/11/20 01:11:10;;;;;;;5.83;1.57;;;;;;;;;;694988;28;1907;-69
2023/11/20 01:11:30;;;;;;;6.10;1.73;;;;;;;;;;693563;28;1903;-68
2023/11/20 01:11:51;;;;;;;6.25;1.50;;;;;;;;;;691716;28;1591;-69
2023/11/20 01:12:11;;;;;;;5.73;1.50;;;;;;;;;;689430;28;1884;-69
2023/11/20 01:12:32;;;;;;;7.05;1.30;;;;;;;;;;691614;28;1319;-68
2023/11/20 01:12:52;;;;;;;6.93;1.53;;;;;;;;;;691387;28;1215;-69
2023/11/20 01:13:12;;;;;;;7.07;1.97;;;;;;;;;;693375;28;4425;-68
2023/11/20 01:13:32;;;;;;;6.00;1.52;;;;;;;;;;692344;28;1368;-72
2023/11/20 01:13:55;;;;;;;6.33;1.43;;;;;;;;;;693641;28;1326;-68
2023/11/20 01:14:16;;;;;;;5.85;1.50;;;;;;;;;;692010;28;1961;-68
2023/11/20 01:14:36;;;;;;;5.27;1.40;;;;;;;;;;689936;28;1176;-68
2023/11/20 01:14:56;;;;;;;6.43;1.50;;;;;;;;;;691242;28;1724;-68
2023/11/20 01:15:17;;;;;;;8.38;1.70;;;;;;;;;;693521;28;1120;-67
2023/11/20 01:15:37;;;;;;;9.47;1.60;;;;;;;;;;691961;28;895;-68
2023/11/20 01:15:58;;;;;;;7.03;1.80;;;;;;;;;;691057;28;1176;-67
2023/11/20 01:16:18;;;;;;;6.33;1.87;;;;;;;;;;695920;28;4276;-69
2023/11/20 01:16:38;;;;;;;6.83;1.60;;;;;;;;;;696460;28;1198;-68
2023/11/20 01:16:58;;;;;;;6.93;1.50;;;;;;;;;;691521;28;1161;-67
2023/11/20 01:17:19;;;;;;;7.20;1.80;;;;;;;;;;691213;28;1518;-68
2023/11/20 01:17:40;;;;;;;7.75;2.03;;;;;;;;;;697455;28;1214;-68
2023/11/20 01:18:01;;;;;;;7.73;1.70;;;;;;;;;;696666;28;1332;-68
2023/11/20 01:18:21;;;;;;;6.63;1.65;;;;;;;;;;694431;28;1037;-68
2023/11/20 01:18:42;;;;;;;6.72;1.80;;;;;;;;;;699828;28;946;-67
2023/11/20 01:19:03;;;;;;;8.10;1.73;;;;;;;;;;698303;28;4525;-68
2023/11/20 01:19:23;;;;;;;6.68;1.60;;;;;;;;;;696496;28;1138;-67
2023/11/20 01:19:46;;;;;;;5.70;1.60;;;;;;;;;;698617;28;3592;-68
2023/11/20 01:20:06;;;;;;;5.57;1.52;;;;;;;;;;698342;28;1115;-67
2023/11/20 01:20:27;;;;;;;6.38;1.77;;;;;;;;;;695716;28;1284;-68
2023/11/20 01:20:47;;;;;;;6.73;2.17;;;;;;;;;;696973;28;864;-67
2023/11/20 01:21:08;;;;;;;6.88;2.10;;;;;;;;;;696536;28;1539;-66
2023/11/20 01:21:29;;;;;;;8.70;1.73;;;;;;;;;;697537;28;1281;-67
2023/11/20 01:21:49;;;;;;;8.17;1.70;;;;;;;;;;697171;28;1009;-67
2023/11/20 01:22:09;;;;;;;9.10;1.55;;;;;;;;;;695780;28;4431;-67
2023/11/20 01:22:30;;;;;;;9.37;1.67;;;;;;;;;;696636;28;1182;-67
2023/11/20 01:22:51;;;;;;;6.00;1.77;;;;;;;;;;697041;28;1198;-67
2023/11/20 01:23:11;;;;;;;6.50;1.80;;;;;;;;;;696561;28;2329;-67
2023/11/20 01:23:31;;;;;;;7.30;1.88;;;;;;;;;;696913;28;1474;-67
2023/11/20 01:23:52;;;;;;;9.30;1.90;;;;;;;;;;693398;28;1301;-67
2023/11/20 01:24:12;;;;;;;7.50;1.77;;;;;;;;;;692744;28;2029;-67
2023/11/20 01:24:33;;;;;;;7.03;1.80;;;;;;;;;;696670;28;1111;-67
2023/11/20 01:24:53;;;;;;;7.13;1.90;;;;;;;;;;696010;28;1139;-67
2023/11/20 01:25:14;;;;;;;6.68;1.65;;;;;;;;;;692302;28;4312;-69
2023/11/20 01:25:34;;;;;;;7.33;1.73;;;;;;;;;;694052;28;1311;-68
2023/11/20 01:25:55;;;;;;;7.50;1.73;;;;;;;;;;694975;28;1338;-69
2023/11/20 01:26:15;;;;;;;6.15;1.75;;;;;;;;;;695776;28;1046;-66
2023/11/20 01:26:37;;;;;;;6.97;1.90;;;;;;;;;;691186;28;1765;-67
2023/11/20 01:26:57;;;;;;;7.45;2.00;;;;;;;;;;692450;28;1114;-69
2023/11/20 01:27:17;;;;;;;8.23;2.13;;;;;;;;;;693692;28;1111;-67
2023/11/20 01:27:38;;;;;;;5.68;1.80;;;;;;;;;;697291;28;1158;-68
2023/11/20 01:27:58;;;;;;;8.27;2.03;;;;;;;;;;694588;28;1235;-69
2023/11/20 01:28:19;;;;;;;10.50;2.22;;;;;;;;;;695769;28;4469;-68
2023/11/20 01:28:40;;;;;;;8.60;2.23;;;;;;;;;;698195;28;1143;-68
2023/11/20 01:29:00;;;;;;;6.93;2.05;;;;;;;;;;699674;28;1187;-67
2023/11/20 01:29:20;;;;;;;8.50;2.30;;;;;;;;;;695666;28;1772;-73
2023/11/20 01:29:41;;;;;;;6.77;2.10;;;;;;;;;;695035;28;1266;-68
2023/11/20 01:30:01;;;;;;;7.70;1.90;;;;;;;;;;692306;28;1217;-67
2023/11/20 01:30:21;;;;;;;9.90;2.25;;;;;;;;;;687119;28;1452;-69
2023/11/20 01:30:41;;;;;;;8.60;2.23;;;;;;;;;;688597;28;1227;-68
2023/11/20 01:31:02;;;;;;;7.40;2.00;;;;;;;;;;687296;28;4411;-68
2023/11/20 01:31:22;;;;;;;9.05;2.22;;;;;;;;;;688703;28;1601;-69
2023/11/20 01:31:42;;;;;;;9.43;2.10;;;;;;;;;;690444;28;1979;-68
2023/11/20 01:32:02;;;;;;;8.00;2.30;;;;;;;;;;692577;28;1948;-69
2023/11/20 01:32:23;;;;;;;8.27;1.92;;;;;;;;;;695250;28;1125;-69
2023/11/20 01:32:43;;;;;;;7.83;2.50;;;;;;;;;;694866;28;1270;-68
2023/11/20 01:33:04;;;;;;;9.57;2.63;;;;;;;;;;694496;28;2332;-68
2023/11/20 01:33:25;;;;;;;9.43;2.22;;;;;;;;;;697859;28;1386;-68
2023/11/20 01:33:45;;;;;;;7.23;2.30;;;;;;;;;;695299;28;1265;-68
2023/11/20 01:34:05;;;;;;;8.93;2.50;;;;;;;;;;694598;28;4321;-68
2023/11/20 01:34:26;;;;;;;8.20;2.60;;;;;;;;;;697610;28;966;-69
2023/11/20 01:34:46;;;;;;;7.50;2.33;;;;;;;;;;694781;28;1298;-69
2023/11/20 01:35:08;;;;;;;8.13;1.98;;;;;;;;;;693454;28;2192;-68
2023/11/20 01:35:29;;;;;;;6.57;1.85;;;;;;;;;;696438;28;1171;-67
2023/11/20 01:35:49;;;;;;;6.97;2.13;;;;;;;;;;693779;28;1404;-68
2023/11/20 01:36:13;;;;;;;7.60;2.30;;;;;;;;;;694811;28;1302;-68
2023/11/20 01:36:33;;;;;;;9.80;2.13;;;;;;;;;;695286;28;1358;-68
2023/11/20 01:36:53;;;;;;;9.33;2.30;;;;;;;;;;693855;28;1358;-68
2023/11/20 01:37:13;;;;;;;8.50;2.37;;;;;;;;;;690915;28;4250;-68
2023/11/20 01:37:34;;;;;;;7.27;2.40;;;;;;;;;;692957;28;1373;-69
2023/11/20 01:37:54;;;;;;;8.38;2.30;;;;;;;;;;693153;28;1354;-68
2023/11/20 01:38:16;;;;;;;7.80;2.43;;;;;;;;;;692626;28;1881;-67
2023/11/20 01:38:36;;;;;;;8.32;2.35;;;;;;;;;;692119;28;1446;-67
2023/11/20 01:38:57;;;;;;;7.85;2.40;;;;;;;;;;689300;28;1353;-68
2023/11/20 01:39:17;;;;;;;9.30;2.57;;;;;;;;;;690833;28;1903;-68
2023/11/20 01:39:38;;;;;;;8.77;2.57;;;;;;;;;;690542;28;833;-69
2023/11/20 01:39:58;;;;;;;8.27;2.50;;;;;;;;;;689646;28;4305;-68
2023/11/20 01:40:19;;;;;;;9.53;2.30;;;;;;;;;;690059;28;1468;-69
2023/11/20 01:40:39;;;;;;;7.93;2.60;;;;;;;;;;694854;28;1235;-69
2023/11/20 01:40:59;;;;;;;6.43;2.20;;;;;;;;;;694699;28;1307;-68
2023/11/20 01:41:20;;;;;;;7.70;2.13;;;;;;;;;;693148;28;1785;-68
2023/11/20 01:41:41;;;;;;;8.93;2.40;;;;;;;;;;693746;28;1195;-67
2023/11/20 01:42:05;;;;;;;9.48;2.50;;;;;;;;;;691911;28;1417;-68
2023/11/20 01:42:25;;;;;;;11.55;2.80;;;;;;;;;;692377;28;5729;-68
2023/11/20 01:42:45;;;;;;;10.47;2.87;;;;;;;;;;690297;28;1173;-67
2023/11/20 01:43:06;;;;;;;10.87;3.20;;;;;;;;;;689177;28;4625;-68
2023/11/20 01:43:26;;;;;;;10.20;2.92;;;;;;;;;;692436;28;1132;-69
2023/11/20 01:43:47;;;;;;;10.17;3.00;;;;;;;;;;691942;28;1554;-68
2023/11/20 01:44:07;;;;;;;9.88;2.80;;;;;;;;;;690924;28;2020;-68
2023/11/20 01:44:27;;;;;;;12.90;2.83;;;;;;;;;;691989;28;876;-68
2023/11/20 01:44:48;;;;;;;13.67;2.87;;;;;;;;;;692511;28;1156;-68
2023/11/20 01:45:08;;;;;;;9.82;3.10;;;;;;;;;;690739;28;2290;-68
2023/11/20 01:45:28;;;;;;;9.63;2.77;;;;;;;;;;689411;28;1298;-68
2023/11/20 01:45:49;;;;;;;10.15;2.60;;;;;;;;;;689228;28;1347;-68
2023/11/20 01:46:11;;;;;;;8.30;2.37;;;;;;;;;;687783;28;5529;-69
2023/11/20 01:46:31;;;;;;;9.02;2.80;;;;;;;;;;686589;28;1235;-68
2023/11/20 01:46:51;;;;;;;8.70;2.70;;;;;;;;;;686162;28;1090;-68
2023/11/20 01:47:12;;;;;;;9.97;2.77;;;;;;;;;;686927;28;2256;-68
2023/11/20 01:47:33;;;;;;;9.35;2.55;;;;;;;;;;689434;28;1298;-68
2023/11/20 01:47:53;;;;;;;8.30;2.33;;;;;;;;;;689178;28;1001;-69
2023/11/20 01:48:14;;;;;;;8.97;2.20;;;;;;;;;;688760;28;2189;-68
2023/11/20 01:48:34;;;;;;;7.70;2.03;;;;;;;;;;694214;28;1391;-68
2023/11/20 01:48:57;;;;;;;8.88;2.40;;;;;;;;;;696837;28;1325;-68
2023/11/20 01:49:17;;;;;;;9.00;2.20;;;;;;;;;;695776;28;4303;-69
2023/11/20 01:49:42;;;;;;;9.80;2.10;;;;;;;;;;697696;28;1024;-68
2023/11/20 01:50:07;;;;;;;8.98;2.22;;;;;;;;;;694908;28;1430;-68
2023/11/20 01:50:30;;;;;;;9.20;2.25;;;;;;;;;;693989;28;1140;-68
2023/11/20 01:50:51;;;;;;;10.82;2.35;;;;;;;;;;695653;28;1214;-69
2023/11/20 01:51:11;;;;;;;8.95;2.20;;;;;;;;;;695543;28;3341;-68
2023/11/20 01:51:32;;;;;;;7.70;2.10;;;;;;;;;;696167;28;1970;-68
2023/11/20 01:51:52;;;;;;;7.97;2.00;;;;;;;;;;697559;28;1226;-68
2023/11/20 01:52:13;;;;;;;8.97;1.90;;;;;;;;;;696160;28;4374;-67
2023/11/20 01:52:34;;;;;;;6.53;2.10;;;;;;;;;;696342;28;1519;-67
2023/11/20 01:52:54;;;;;;;9.40;2.00;;;;;;;;;;693969;28;1404;-68
2023/11/20 01:53:15;;;;;;;10.77;2.60;;;;;;;;;;693594;28;1512;-68
2023/11/20 01:53:35;;;;;;;10.83;2.73;;;;;;;;;;691242;28;1375;-67
2023/11/20 01:53:57;;;;;;;8.52;2.10;;;;;;;;;;692473;28;1363;-67
2023/11/20 01:54:18;;;;;;;7.47;2.00;;;;;;;;;;689368;28;1029;-67
2023/11/20 01:54:38;;;;;;;7.15;1.98;;;;;;;;;;690758;28;1152;-68
2023/11/20 01:54:58;;;;;;;8.33;1.90;;;;;;;;;;693076;28;4410;-68
2023/11/20 01:55:20;;;;;;;9.27;1.95;;;;;;;;;;693225;28;1032;-68
2023/11/20 01:55:40;;;;;;;9.50;2.10;;;;;;;;;;695828;28;1123;-67
2023/11/20 01:56:01;;;;;;;8.45;2.15;;;;;;;;;;698414;28;1258;-67
2023/11/20 01:56:22;;;;;;;7.50;1.80;;;;;;;;;;695151;28;1461;-69
2023/11/20 01:56:43;;;;;;;10.82;2.08;;;;;;;;;;697143;28;1155;-68
2023/11/20 01:57:03;;;;;;;10.68;2.08;;;;;;;;;;695367;28;1491;-67
2023/11/20 01:57:24;;;;;;;9.60;2.00;;;;;;;;;;695082;28;1831;-68
2023/11/20 01:57:46;;;;;;;8.45;1.92;;;;;;;;;;694944;28;1305;-68
2023/11/20 01:58:08;;;;;;;8.50;1.95;;;;;;;;;;688051;28;4387;-68
2023/11/20 01:58:28;;;;;;;7.70;2.00;;;;;;;;;;689722;28;1237;-67
2023/11/20 01:58:50;;;;;;;8.47;2.23;;;;;;;;;;692328;28;1179;-68
2023/11/20 01:59:11;;;;;;;7.55;1.88;;;;;;;;;;691569;28;1211;-67
2023/11/20 01:59:31;;;;;;;7.00;1.90;;;;;;;;;;692568;28;2100;-67
2023/11/20 01:59:52;;;;;;;8.57;1.98;;;;;;;;;;693219;28;1144;-68
2023/11/20 02:00:14;;;;;;;7.53;1.90;;;;;;;;;;690617;28;1741;-67
2023/11/20 02:00:35;;;;;;;6.97;1.70;;;;;;;;;;690885;28;1617;-67
2023/11/20 02:00:55;;;;;;;6.27;1.80;;;;;;;;;;690934;28;1768;-67
2023/11/20 02:01:15;;;;;;;8.00;1.90;;;;;;;;;;680507;28;4288;-70
2023/11/20 02:01:36;;;;;;;6.18;1.90;;;;;;;;;;692692;28;1104;-68
2023/11/20 02:01:56;;;;;;;6.43;2.00;;;;;;;;;;692834;28;777;-67
2023/11/20 02:02:17;;;;;;;8.07;1.92;;;;;;;;;;692000;28;1712;-68
2023/11/20 02:02:38;;;;;;;9.40;2.20;;;;;;;;;;692975;28;1191;-67
2023/11/20 02:02:59;;;;;;;8.13;2.00;;;;;;;;;;691511;28;1305;-68
2023/11/20 02:03:19;;;;;;;9.57;1.90;;;;;;;;;;694385;28;1655;-66
2023/11/20 02:03:40;;;;;;;7.70;1.70;;;;;;;;;;693093;28;1151;-67
2023/11/20 02:04:01;;;;;;;5.80;1.90;;;;;;;;;;692191;28;4304;-67
2023/11/20 02:04:22;;;;;;;6.93;1.83;;;;;;;;;;689103;28;1603;-67
2023/11/20 02:04:44;;;;;;;6.65;1.83;;;;;;;;;;690222;28;1320;-68
2023/11/20 02:05:08;;;;;;;6.53;1.90;;;;;;;;;;689019;28;1048;-68
2023/11/20 02:05:28;;;;;;;8.85;2.05;;;;;;;;;;690718;28;1183;-68
2023/11/20 02:05:49;;;;;;;10.02;2.10;;;;;;;;;;693048;28;1304;-67
2023/11/20 02:06:09;;;;;;;9.60;1.97;;;;;;;;;;690687;28;1473;-67
2023/11/20 02:06:30;;;;;;;9.07;2.17;;;;;;;;;;690087;28;1342;-67
2023/11/20 02:06:51;;;;;;;8.33;2.17;;;;;;;;;;689025;28;1235;-68
2023/11/20 02:07:11;;;;;;;10.27;2.00;;;;;;;;;;686889;28;4304;-67
2023/11/20 02:07:35;;;;;;;9.45;2.30;;;;;;;;;;687545;28;1458;-67
2023/11/20 02:07:55;;;;;;;9.50;2.28;;;;;;;;;;690249;28;1256;-68
2023/11/20 02:08:15;;;;;;;8.48;2.40;;;;;;;;;;688009;28;1477;-67